sensor_id;sensor_type;location;lat;lon;timestamp;pressure;altitude;pressure_sealevel;temperature;humidity
70968;BME280;58629;48.808;8.820;2024-03-23T00:53:25;96395.69;;;5.95;100.00
70968;BME280;58629;48.808;8.820;2024-03-23T00:55:50;96383.28;;;5.99;100.00
70968;BME280;58629;48.808;8.820;2024-03-23T00:58:16;96381.34;;;6.03;100.00
70968;BME280;58629;48.808;8.820;2024-03-23T01:00:41;96371.59;;;6.03;100.00
70968;BME280;58629;48.808;8.820;2024-03-23T01:03:06;96355.38;;;6.08;100.00
70968;BME280;58629;48.808;8.820;2024-03-23T01:05:32;96358.03;;;6.05;100.00
70968;BME280;58629;48.808;8.820;2024-03-23T01:07:57;96363.69;;;6.03;100.00
70968;BME280;58629;48.808;8.820;2024-03-23T01:10:22;96359.91;;;6.08;100.00
70968;BME280;58629;48.808;8.820;2024-03-23T01:12:47;96356.00;;;6.16;100.00
70968;BME280;58629;48.808;8.820;2024-03-23T01:15:13;96349.91;;;6.23;100.00
70968;BME280;58629;48.808;8.820;2024-03-23T01:17:38;96343.84;;;6.29;100.00
70968;BME280;58629;48.808;8.820;2024-03-23T01:20:04;96337.00;;;6.35;100.00
70968;BME280;58629;48.808;8.820;2024-03-23T01:22:29;96333.91;;;6.40;100.00
70968;BME280;58629;48.808;8.820;2024-03-23T01:24:55;96329.03;;;6.39;100.00
70968;BME280;58629;48.808;8.820;2024-03-23T01:27:20;96332.84;;;6.38;100.00
70968;BME280;58629;48.808;8.820;2024-03-23T01:29:45;96334.31;;;6.39;100.00
70968;BME280;58629;48.808;8.820;2024-03-23T01:32:10;96321.16;;;6.39;100.00
70968;BME280;58629;48.808;8.820;2024-03-23T01:34:36;96324.38;;;6.50;100.00
70968;BME280;58629;48.808;8.820;2024-03-23T01:37:01;96315.34;;;6.51;100.00
70968;BME280;58629;48.808;8.820;2024-03-23T01:39:27;96313.13;;;6.49;100.00
70968;BME280;58629;48.808;8.820;2024-03-23T01:41:52;96311.00;;;6.64;100.00
70968;BME280;58629;48.808;8.820;2024-03-23T01:44:17;96303.78;;;6.71;100.00
70968;BME280;58629;48.808;8.820;2024-03-23T01:46:43;96296.88;;;6.77;100.00
70968;BME280;58629;48.808;8.820;2024-03-23T01:49:10;96293.88;;;6.79;100.00
70968;BME280;58629;48.808;8.820;2024-03-23T01:51:36;96294.78;;;6.69;100.00
70968;BME280;58629;48.808;8.820;2024-03-23T01:54:02;96286.66;;;6.83;100.00
70968;BME280;58629;48.808;8.820;2024-03-23T01:56:31;96296.81;;;7.04;100.00
70968;BME280;58629;48.808;8.820;2024-03-23T01:58:59;96288.44;;;7.09;100.00
70968;BME280;58629;48.808;8.820;2024-03-23T02:01:24;96277.47;;;7.14;100.00
70968;BME280;58629;48.808;8.820;2024-03-23T02:03:50;96269.03;;;7.23;100.00
70968;BME280;58629;48.808;8.820;2024-03-23T02:06:15;96266.66;;;7.28;100.00
70968;BME280;58629;48.808;8.820;2024-03-23T02:08:40;96272.81;;;7.41;100.00
70968;BME280;58629;48.808;8.820;2024-03-23T02:11:06;96265.25;;;7.43;100.00
70968;BME280;58629;48.808;8.820;2024-03-23T02:13:31;96259.91;;;7.47;100.00
70968;BME280;58629;48.808;8.820;2024-03-23T02:15:57;96264.84;;;7.64;100.00
70968;BME280;58629;48.808;8.820;2024-03-23T02:18:22;96252.72;;;7.67;100.00
70968;BME280;58629;48.808;8.820;2024-03-23T02:20:47;96255.41;;;7.83;100.00
70968;BME280;58629;48.808;8.820;2024-03-23T02:23:16;96256.50;;;7.85;100.00
70968;BME280;58629;48.808;8.820;2024-03-23T02:25:43;96246.06;;;7.98;100.00
70968;BME280;58629;48.808;8.820;2024-03-23T02:28:09;96244.81;;;8.03;100.00
70968;BME280;58629;48.808;8.820;2024-03-23T02:30:34;96250.34;;;8.08;100.00
70968;BME280;58629;48.808;8.820;2024-03-23T02:32:59;96248.38;;;8.12;100.00
70968;BME280;58629;48.808;8.820;2024-03-23T02:35:25;96246.63;;;8.25;100.00
70968;BME280;58629;48.808;8.820;2024-03-23T02:37:50;96249.06;;;8.32;100.00
70968;BME280;58629;48.808;8.820;2024-03-23T02:40:16;96249.72;;;8.36;100.00
70968;BME280;58629;48.808;8.820;2024-03-23T02:42:42;96246.44;;;8.32;100.00
70968;BME280;58629;48.808;8.820;2024-03-23T02:45:08;96243.31;;;8.37;100.00
70968;BME280;58629;48.808;8.820;2024-03-23T02:47:33;96241.41;;;8.38;100.00
70968;BME280;58629;48.808;8.820;2024-03-23T02:49:59;96233.91;;;8.36;100.00
70968;BME280;58629;48.808;8.820;2024-03-23T02:52:24;96240.34;;;8.35;100.00
70968;BME280;58629;48.808;8.820;2024-03-23T02:54:49;96233.66;;;8.31;100.00
70968;BME280;58629;48.808;8.820;2024-03-23T02:57:14;96235.97;;;8.29;100.00
70968;BME280;58629;48.808;8.820;2024-03-23T02:59:40;96222.44;;;8.27;100.00
70968;BME280;58629;48.808;8.820;2024-03-23T03:02:06;96217.31;;;8.20;100.00
70968;BME280;58629;48.808;8.820;2024-03-23T03:04:31;96211.53;;;8.09;100.00
70968;BME280;58629;48.808;8.820;2024-03-23T03:06:57;96208.31;;;8.01;100.00
70968;BME280;58629;48.808;8.820;2024-03-23T03:09:22;96207.00;;;7.93;100.00
70968;BME280;58629;48.808;8.820;2024-03-23T03:11:48;96202.56;;;7.90;100.00
70968;BME280;58629;48.808;8.820;2024-03-23T03:14:13;96204.03;;;7.91;100.00
70968;BME280;58629;48.808;8.820;2024-03-23T03:16:38;96214.66;;;7.87;100.00
70968;BME280;58629;48.808;8.820;2024-03-23T03:19:04;96206.22;;;7.76;100.00
70968;BME280;58629;48.808;8.820;2024-03-23T03:21:29;96224.03;;;7.72;100.00
70968;BME280;58629;48.808;8.820;2024-03-23T03:23:54;96218.59;;;7.79;100.00
70968;BME280;58629;48.808;8.820;2024-03-23T03:26:22;96199.81;;;7.77;100.00
70968;BME280;58629;48.808;8.820;2024-03-23T03:28:47;96203.84;;;7.66;100.00
70968;BME280;58629;48.808;8.820;2024-03-23T03:31:19;96206.72;;;7.71;100.00
70968;BME280;58629;48.808;8.820;2024-03-23T03:33:45;96186.72;;;7.74;100.00
70968;BME280;58629;48.808;8.820;2024-03-23T03:36:11;96183.56;;;7.63;100.00
70968;BME280;58629;48.808;8.820;2024-03-23T03:38:36;96163.22;;;7.63;100.00
70968;BME280;58629;48.808;8.820;2024-03-23T03:41:02;96151.94;;;7.63;100.00
70968;BME280;58629;48.808;8.820;2024-03-23T03:43:28;96155.50;;;7.56;100.00
70968;BME280;58629;48.808;8.820;2024-03-23T03:45:54;96156.28;;;7.53;100.00
70968;BME280;58629;48.808;8.820;2024-03-23T03:48:19;96152.53;;;7.54;100.00
70968;BME280;58629;48.808;8.820;2024-03-23T03:50:45;96139.47;;;7.47;100.00
70968;BME280;58629;48.808;8.820;2024-03-23T03:53:10;96133.97;;;7.42;100.00
70968;BME280;58629;48.808;8.820;2024-03-23T03:55:36;96131.50;;;7.35;100.00
70968;BME280;58629;48.808;8.820;2024-03-23T03:58:02;96127.28;;;7.37;100.00
70968;BME280;58629;48.808;8.820;2024-03-23T04:00:27;96131.59;;;7.47;100.00
70968;BME280;58629;48.808;8.820;2024-03-23T04:02:52;96140.69;;;7.62;100.00
70968;BME280;58629;48.808;8.820;2024-03-23T04:05:17;96145.63;;;7.93;100.00
70968;BME280;58629;48.808;8.820;2024-03-23T04:07:44;96164.34;;;8.30;100.00
70968;BME280;58629;48.808;8.820;2024-03-23T04:10:09;96176.75;;;8.62;100.00
70968;BME280;58629;48.808;8.820;2024-03-23T04:12:35;96177.28;;;8.69;100.00
70968;BME280;58629;48.808;8.820;2024-03-23T04:15:00;96190.28;;;8.48;100.00
70968;BME280;58629;48.808;8.820;2024-03-23T04:17:28;96194.56;;;8.58;100.00
70968;BME280;58629;48.808;8.820;2024-03-23T04:19:57;96182.66;;;8.66;100.00
70968;BME280;58629;48.808;8.820;2024-03-23T04:22:22;96182.28;;;8.67;100.00
70968;BME280;58629;48.808;8.820;2024-03-23T04:24:49;96178.69;;;8.74;100.00
70968;BME280;58629;48.808;8.820;2024-03-23T04:27:15;96159.63;;;8.83;100.00
70968;BME280;58629;48.808;8.820;2024-03-23T04:29:40;96158.81;;;8.98;100.00
70968;BME280;58629;48.808;8.820;2024-03-23T04:32:06;96156.19;;;8.98;100.00
70968;BME280;58629;48.808;8.820;2024-03-23T04:34:31;96164.09;;;8.98;100.00
70968;BME280;58629;48.808;8.820;2024-03-23T04:36:58;96194.06;;;8.92;100.00
70968;BME280;58629;48.808;8.820;2024-03-23T04:39:23;96200.28;;;8.85;100.00
70968;BME280;58629;48.808;8.820;2024-03-23T04:41:49;96197.81;;;8.78;100.00
70968;BME280;58629;48.808;8.820;2024-03-23T04:44:15;96182.84;;;8.75;100.00
70968;BME280;58629;48.808;8.820;2024-03-23T04:46:40;96188.59;;;8.70;100.00
70968;BME280;58629;48.808;8.820;2024-03-23T04:49:05;96181.09;;;8.68;100.00
70968;BME280;58629;48.808;8.820;2024-03-23T04:51:35;96192.91;;;8.64;100.00
70968;BME280;58629;48.808;8.820;2024-03-23T04:54:02;96194.88;;;8.60;100.00
70968;BME280;58629;48.808;8.820;2024-03-23T04:56:27;96195.22;;;8.62;100.00
70968;BME280;58629;48.808;8.820;2024-03-23T04:58:52;96194.56;;;8.58;100.00
70968;BME280;58629;48.808;8.820;2024-03-23T05:01:18;96202.16;;;8.56;100.00
70968;BME280;58629;48.808;8.820;2024-03-23T05:03:43;96205.31;;;8.51;100.00
70968;BME280;58629;48.808;8.820;2024-03-23T05:06:09;96211.38;;;8.48;100.00
70968;BME280;58629;48.808;8.820;2024-03-23T05:08:34;96218.97;;;8.46;100.00
70968;BME280;58629;48.808;8.820;2024-03-23T05:10:59;96219.31;;;8.48;100.00
70968;BME280;58629;48.808;8.820;2024-03-23T05:13:24;96212.88;;;8.49;100.00
70968;BME280;58629;48.808;8.820;2024-03-23T05:15:54;96227.56;;;8.50;100.00
70968;BME280;58629;48.808;8.820;2024-03-23T05:18:20;96228.06;;;8.45;100.00
70968;BME280;58629;48.808;8.820;2024-03-23T05:20:45;96219.16;;;8.39;100.00
70968;BME280;58629;48.808;8.820;2024-03-23T05:23:11;96219.25;;;8.35;100.00
70968;BME280;58629;48.808;8.820;2024-03-23T05:25:36;96222.78;;;8.29;100.00
70968;BME280;58629;48.808;8.820;2024-03-23T05:28:01;96218.34;;;8.26;100.00
70968;BME280;58629;48.808;8.820;2024-03-23T05:30:27;96228.22;;;8.22;100.00
70968;BME280;58629;48.808;8.820;2024-03-23T05:32:52;96231.00;;;8.15;100.00
70968;BME280;58629;48.808;8.820;2024-03-23T05:35:18;96233.88;;;8.04;100.00
70968;BME280;58629;48.808;8.820;2024-03-23T05:37:43;96248.69;;;7.98;100.00
70968;BME280;58629;48.808;8.820;2024-03-23T05:40:10;96256.34;;;7.93;100.00
70968;BME280;58629;48.808;8.820;2024-03-23T05:42:35;96272.72;;;7.84;100.00
70968;BME280;58629;48.808;8.820;2024-03-23T05:45:01;96264.41;;;7.85;100.00
70968;BME280;58629;48.808;8.820;2024-03-23T05:47:26;96276.38;;;7.90;100.00
70968;BME280;58629;48.808;8.820;2024-03-23T05:49:51;96270.69;;;7.92;100.00
70968;BME280;58629;48.808;8.820;2024-03-23T05:52:17;96261.44;;;7.83;100.00
70968;BME280;58629;48.808;8.820;2024-03-23T05:54:42;96269.13;;;7.74;100.00
70968;BME280;58629;48.808;8.820;2024-03-23T05:57:09;96272.59;;;7.71;100.00
70968;BME280;58629;48.808;8.820;2024-03-23T05:59:34;96277.34;;;7.60;100.00
70968;BME280;58629;48.808;8.820;2024-03-23T06:02:00;96276.59;;;7.60;100.00
70968;BME280;58629;48.808;8.820;2024-03-23T06:04:25;96283.06;;;7.55;100.00
70968;BME280;58629;48.808;8.820;2024-03-23T06:06:53;96286.25;;;7.47;100.00
70968;BME280;58629;48.808;8.820;2024-03-23T06:09:19;96298.00;;;7.42;100.00
70968;BME280;58629;48.808;8.820;2024-03-23T06:11:48;96294.38;;;7.36;100.00
70968;BME280;58629;48.808;8.820;2024-03-23T06:14:13;96293.06;;;7.25;100.00
70968;BME280;58629;48.808;8.820;2024-03-23T06:16:39;96292.78;;;7.19;100.00
70968;BME280;58629;48.808;8.820;2024-03-23T06:19:04;96292.16;;;7.12;100.00
70968;BME280;58629;48.808;8.820;2024-03-23T06:21:32;96303.19;;;7.07;100.00
70968;BME280;58629;48.808;8.820;2024-03-23T06:23:57;96318.34;;;6.99;100.00
70968;BME280;58629;48.808;8.820;2024-03-23T06:26:23;96323.72;;;6.92;100.00
70968;BME280;58629;48.808;8.820;2024-03-23T06:28:48;96356.13;;;6.89;100.00
70968;BME280;58629;48.808;8.820;2024-03-23T06:31:14;96344.44;;;6.90;100.00
70968;BME280;58629;48.808;8.820;2024-03-23T06:33:39;96342.94;;;6.89;100.00
70968;BME280;58629;48.808;8.820;2024-03-23T06:36:10;96361.06;;;6.83;100.00
70968;BME280;58629;48.808;8.820;2024-03-23T06:38:37;96347.91;;;6.83;100.00
70968;BME280;58629;48.808;8.820;2024-03-23T06:41:03;96349.84;;;6.79;100.00
70968;BME280;58629;48.808;8.820;2024-03-23T06:43:29;96349.34;;;6.88;100.00
70968;BME280;58629;48.808;8.820;2024-03-23T06:45:54;96372.69;;;6.86;100.00
70968;BME280;58629;48.808;8.820;2024-03-23T06:48:20;96358.00;;;6.88;100.00
70968;BME280;58629;48.808;8.820;2024-03-23T06:50:46;96359.94;;;6.84;100.00
70968;BME280;58629;48.808;8.820;2024-03-23T06:53:15;96383.56;;;6.88;100.00
70968;BME280;58629;48.808;8.820;2024-03-23T06:55:40;96400.19;;;6.81;100.00
70968;BME280;58629;48.808;8.820;2024-03-23T06:58:06;96400.53;;;6.83;100.00
70968;BME280;58629;48.808;8.820;2024-03-23T07:00:32;96407.00;;;6.79;100.00
70968;BME280;58629;48.808;8.820;2024-03-23T07:02:57;96405.56;;;6.74;100.00
70968;BME280;58629;48.808;8.820;2024-03-23T07:05:24;96412.06;;;6.66;100.00
70968;BME280;58629;48.808;8.820;2024-03-23T07:07:49;96421.16;;;6.62;100.00
70968;BME280;58629;48.808;8.820;2024-03-23T07:10:15;96421.19;;;6.58;100.00
70968;BME280;58629;48.808;8.820;2024-03-23T07:12:40;96424.22;;;6.57;100.00
70968;BME280;58629;48.808;8.820;2024-03-23T07:15:06;96419.66;;;6.61;100.00
70968;BME280;58629;48.808;8.820;2024-03-23T07:17:32;96440.38;;;6.59;100.00
70968;BME280;58629;48.808;8.820;2024-03-23T07:19:58;96404.59;;;6.65;100.00
70968;BME280;58629;48.808;8.820;2024-03-23T07:22:23;96399.38;;;6.61;100.00
70968;BME280;58629;48.808;8.820;2024-03-23T07:24:49;96397.94;;;6.57;100.00
70968;BME280;58629;48.808;8.820;2024-03-23T07:27:14;96410.72;;;6.55;100.00
70968;BME280;58629;48.808;8.820;2024-03-23T07:29:39;96434.47;;;6.51;100.00
70968;BME280;58629;48.808;8.820;2024-03-23T07:32:05;96439.97;;;6.60;100.00
70968;BME280;58629;48.808;8.820;2024-03-23T07:34:30;96447.25;;;6.49;100.00
70968;BME280;58629;48.808;8.820;2024-03-23T07:36:56;96457.03;;;6.49;100.00
70968;BME280;58629;48.808;8.820;2024-03-23T07:39:21;96469.88;;;6.43;100.00
70968;BME280;58629;48.808;8.820;2024-03-23T07:41:46;96485.69;;;6.40;100.00
70968;BME280;58629;48.808;8.820;2024-03-23T07:44:12;96493.34;;;6.27;100.00
70968;BME280;58629;48.808;8.820;2024-03-23T07:46:37;96498.31;;;6.18;100.00
70968;BME280;58629;48.808;8.820;2024-03-23T07:49:04;96493.47;;;6.17;100.00
70968;BME280;58629;48.808;8.820;2024-03-23T07:51:29;96491.88;;;6.23;100.00
70968;BME280;58629;48.808;8.820;2024-03-23T07:53:55;96481.31;;;6.26;100.00
70968;BME280;58629;48.808;8.820;2024-03-23T07:56:20;96481.66;;;6.32;100.00
70968;BME280;58629;48.808;8.820;2024-03-23T07:58:47;96480.75;;;6.45;100.00
70968;BME280;58629;48.808;8.820;2024-03-23T08:01:14;96494.25;;;6.47;100.00
70968;BME280;58629;48.808;8.820;2024-03-23T08:03:42;96485.56;;;6.50;100.00
70968;BME280;58629;48.808;8.820;2024-03-23T08:06:14;96498.25;;;6.59;100.00
70968;BME280;58629;48.808;8.820;2024-03-23T08:08:41;96493.91;;;6.75;100.00
70968;BME280;58629;48.808;8.820;2024-03-23T08:11:06;96509.28;;;6.77;100.00
70968;BME280;58629;48.808;8.820;2024-03-23T08:13:33;96529.56;;;7.07;100.00
70968;BME280;58629;48.808;8.820;2024-03-23T08:16:00;96536.22;;;7.15;100.00
70968;BME280;58629;48.808;8.820;2024-03-23T08:18:25;96531.06;;;7.08;100.00
70968;BME280;58629;48.808;8.820;2024-03-23T08:21:01;96541.28;;;7.02;100.00
70968;BME280;58629;48.808;8.820;2024-03-23T08:23:30;96542.78;;;6.73;100.00
70968;BME280;58629;48.808;8.820;2024-03-23T08:26:03;96547.75;;;6.67;100.00
70968;BME280;58629;48.808;8.820;2024-03-23T08:28:29;96565.84;;;6.62;100.00
70968;BME280;58629;48.808;8.820;2024-03-23T08:30:55;96561.78;;;6.54;100.00
70968;BME280;58629;48.808;8.820;2024-03-23T08:33:22;96586.09;;;6.65;100.00
70968;BME280;58629;48.808;8.820;2024-03-23T08:36:02;96591.66;;;7.04;100.00
70968;BME280;58629;48.808;8.820;2024-03-23T08:38:28;96585.81;;;7.20;100.00
70968;BME280;58629;48.808;8.820;2024-03-23T08:40:58;96590.19;;;7.30;100.00
70968;BME280;58629;48.808;8.820;2024-03-23T08:43:23;96598.53;;;7.51;100.00
70968;BME280;58629;48.808;8.820;2024-03-23T08:45:49;96596.91;;;7.34;100.00
70968;BME280;58629;48.808;8.820;2024-03-23T08:48:14;96635.78;;;6.93;100.00
70968;BME280;58629;48.808;8.820;2024-03-23T08:50:39;96618.06;;;6.97;100.00
70968;BME280;58629;48.808;8.820;2024-03-23T08:53:05;96616.34;;;7.14;100.00
70968;BME280;58629;48.808;8.820;2024-03-23T08:55:30;96620.22;;;7.06;100.00
70968;BME280;58629;48.808;8.820;2024-03-23T08:57:55;96640.84;;;6.77;100.00
70968;BME280;58629;48.808;8.820;2024-03-23T09:00:21;96656.41;;;6.98;100.00
70968;BME280;58629;48.808;8.820;2024-03-23T09:02:50;96656.91;;;7.20;99.29
70968;BME280;58629;48.808;8.820;2024-03-23T09:05:15;96654.63;;;7.22;98.88
70968;BME280;58629;48.808;8.820;2024-03-23T09:07:40;96657.50;;;7.61;96.68
70968;BME280;58629;48.808;8.820;2024-03-23T09:10:07;96670.38;;;7.55;94.06
70968;BME280;58629;48.808;8.820;2024-03-23T09:12:33;96653.84;;;8.05;91.92
70968;BME280;58629;48.808;8.820;2024-03-23T09:14:58;96666.34;;;8.01;83.34
70968;BME280;58629;48.808;8.820;2024-03-23T09:17:23;96675.53;;;8.16;83.98
70968;BME280;58629;48.808;8.820;2024-03-23T09:19:49;96685.44;;;7.55;80.35
70968;BME280;58629;48.808;8.820;2024-03-23T09:22:14;96691.94;;;7.17;85.67
70968;BME280;58629;48.808;8.820;2024-03-23T09:24:40;96674.31;;;7.10;82.81
70968;BME280;58629;48.808;8.820;2024-03-23T09:27:05;96682.19;;;7.44;82.12
70968;BME280;58629;48.808;8.820;2024-03-23T09:29:31;96683.91;;;7.57;85.53
70968;BME280;58629;48.808;8.820;2024-03-23T09:31:56;96684.84;;;7.97;86.41
70968;BME280;58629;48.808;8.820;2024-03-23T09:34:22;96685.03;;;7.83;82.96
70968;BME280;58629;48.808;8.820;2024-03-23T09:36:51;96695.97;;;8.35;86.44
70968;BME280;58629;48.808;8.820;2024-03-23T09:39:17;96695.25;;;8.57;84.34
70968;BME280;58629;48.808;8.820;2024-03-23T09:41:42;96686.97;;;8.55;83.48
70968;BME280;58629;48.808;8.820;2024-03-23T09:44:08;96675.44;;;8.89;81.56
70968;BME280;58629;48.808;8.820;2024-03-23T09:46:33;96676.75;;;8.57;80.55
70968;BME280;58629;48.808;8.820;2024-03-23T09:49:00;96687.34;;;7.81;84.99
70968;BME280;58629;48.808;8.820;2024-03-23T09:51:25;96681.16;;;7.91;83.40
70968;BME280;58629;48.808;8.820;2024-03-23T09:53:51;96698.63;;;7.81;82.60
70968;BME280;58629;48.808;8.820;2024-03-23T09:56:17;96677.56;;;7.51;81.63
70968;BME280;58629;48.808;8.820;2024-03-23T09:58:43;96672.28;;;7.81;84.84
70968;BME280;58629;48.808;8.820;2024-03-23T10:01:08;96676.53;;;8.48;85.11
70968;BME280;58629;48.808;8.820;2024-03-23T10:03:42;96675.78;;;8.71;79.28
70968;BME280;58629;48.808;8.820;2024-03-23T10:06:08;96662.69;;;9.03;81.71
70968;BME280;58629;48.808;8.820;2024-03-23T10:08:33;96673.09;;;8.51;77.03
70968;BME280;58629;48.808;8.820;2024-03-23T10:11:13;96673.66;;;8.62;78.37
70968;BME280;58629;48.808;8.820;2024-03-23T10:13:41;96674.28;;;8.47;75.11
70968;BME280;58629;48.808;8.820;2024-03-23T10:16:07;96677.84;;;8.37;78.69
70968;BME280;58629;48.808;8.820;2024-03-23T10:18:37;96675.56;;;8.39;72.58
70968;BME280;58629;48.808;8.820;2024-03-23T10:23:31;96715.38;;;6.67;84.86
70968;BME280;58629;48.808;8.820;2024-03-23T10:26:12;96710.47;;;6.25;91.14
70968;BME280;58629;48.808;8.820;2024-03-23T10:31:19;96740.13;;;5.53;98.05
70968;BME280;58629;48.808;8.820;2024-03-23T10:33:46;96750.75;;;5.28;100.00
70968;BME280;58629;48.808;8.820;2024-03-23T10:36:12;96787.19;;;4.84;100.00
70968;BME280;58629;48.808;8.820;2024-03-23T10:38:40;96781.22;;;4.55;100.00
70968;BME280;58629;48.808;8.820;2024-03-23T10:41:06;96752.34;;;4.20;100.00
70968;BME280;58629;48.808;8.820;2024-03-23T10:43:33;96755.75;;;4.34;100.00
70968;BME280;58629;48.808;8.820;2024-03-23T10:45:58;96763.25;;;4.39;100.00
70968;BME280;58629;48.808;8.820;2024-03-23T10:48:24;96734.00;;;4.52;100.00
70968;BME280;58629;48.808;8.820;2024-03-23T10:50:49;96736.63;;;4.62;100.00
70968;BME280;58629;48.808;8.820;2024-03-23T10:53:15;96741.88;;;4.66;100.00
70968;BME280;58629;48.808;8.820;2024-03-23T10:55:43;96736.97;;;4.89;100.00
70968;BME280;58629;48.808;8.820;2024-03-23T10:58:10;96722.16;;;5.48;100.00
70968;BME280;58629;48.808;8.820;2024-03-23T11:00:38;96723.53;;;5.84;100.00
70968;BME280;58629;48.808;8.820;2024-03-23T11:03:33;96722.72;;;5.87;100.00
70968;BME280;58629;48.808;8.820;2024-03-23T11:06:00;96724.22;;;6.43;100.00
70968;BME280;58629;48.808;8.820;2024-03-23T11:11:20;96714.53;;;7.14;100.00
70968;BME280;58629;48.808;8.820;2024-03-23T11:13:50;96704.75;;;7.75;100.00
70968;BME280;58629;48.808;8.820;2024-03-23T11:16:22;96710.31;;;8.34;100.00
70968;BME280;58629;48.808;8.820;2024-03-23T11:18:48;96706.53;;;8.35;100.00
70968;BME280;58629;48.808;8.820;2024-03-23T11:24:17;96699.72;;;8.37;93.58
70968;BME280;58629;48.808;8.820;2024-03-23T11:26:43;96693.91;;;8.69;92.11
70968;BME280;58629;48.808;8.820;2024-03-23T11:29:14;96703.50;;;9.22;94.17
70968;BME280;58629;48.808;8.820;2024-03-23T11:31:49;96708.44;;;9.20;82.92
70968;BME280;58629;48.808;8.820;2024-03-23T11:34:16;96701.38;;;9.13;83.02
70968;BME280;58629;48.808;8.820;2024-03-23T11:36:42;96718.06;;;9.10;86.64
70968;BME280;58629;48.808;8.820;2024-03-23T11:39:18;96710.03;;;8.74;82.24
70968;BME280;58629;48.808;8.820;2024-03-23T11:41:51;96709.97;;;8.55;79.44
70968;BME280;58629;48.808;8.820;2024-03-23T11:44:26;96695.41;;;8.47;78.16
70968;BME280;58629;48.808;8.820;2024-03-23T11:46:52;96699.19;;;7.96;79.37
70968;BME280;58629;48.808;8.820;2024-03-23T11:49:25;96685.56;;;8.28;77.39
70968;BME280;58629;48.808;8.820;2024-03-23T11:51:53;96692.94;;;7.83;78.15
70968;BME280;58629;48.808;8.820;2024-03-23T11:54:23;96697.19;;;8.04;80.31
70968;BME280;58629;48.808;8.820;2024-03-23T11:57:03;96696.28;;;7.87;77.23
70968;BME280;58629;48.808;8.820;2024-03-23T11:59:39;96693.75;;;8.07;76.26
70968;BME280;58629;48.808;8.820;2024-03-23T12:02:13;96691.06;;;7.83;77.07
70968;BME280;58629;48.808;8.820;2024-03-23T12:04:42;96690.03;;;8.04;81.13
70968;BME280;58629;48.808;8.820;2024-03-23T12:07:15;96686.81;;;7.63;80.34
70968;BME280;58629;48.808;8.820;2024-03-23T12:09:41;96673.84;;;7.49;78.85
70968;BME280;58629;48.808;8.820;2024-03-23T12:12:08;96672.03;;;7.72;81.41
70968;BME280;58629;48.808;8.820;2024-03-23T12:14:33;96669.06;;;7.40;78.95
70968;BME280;58629;48.808;8.820;2024-03-23T12:17:12;96665.69;;;7.40;85.53
70968;BME280;58629;48.808;8.820;2024-03-23T12:19:38;96655.78;;;7.47;82.00
70968;BME280;58629;48.808;8.820;2024-03-23T12:22:05;96672.75;;;7.46;80.94
70968;BME280;58629;48.808;8.820;2024-03-23T12:24:34;96657.34;;;7.71;81.32
70968;BME280;58629;48.808;8.820;2024-03-23T12:27:03;96662.63;;;8.67;82.25
70968;BME280;58629;48.808;8.820;2024-03-23T12:29:32;96656.25;;;9.43;81.35
70968;BME280;58629;48.808;8.820;2024-03-23T12:32:01;96656.47;;;9.69;70.69
70968;BME280;58629;48.808;8.820;2024-03-23T12:34:28;96657.06;;;9.76;74.94
70968;BME280;58629;48.808;8.820;2024-03-23T12:36:55;96664.47;;;9.10;73.32
70968;BME280;58629;48.808;8.820;2024-03-23T12:39:21;96666.72;;;9.31;72.33
70968;BME280;58629;48.808;8.820;2024-03-23T12:41:47;96671.28;;;8.68;73.41
70968;BME280;58629;48.808;8.820;2024-03-23T12:44:12;96665.50;;;8.30;73.23
70968;BME280;58629;48.808;8.820;2024-03-23T12:46:38;96673.34;;;9.00;72.94
70968;BME280;58629;48.808;8.820;2024-03-23T12:49:04;96663.50;;;9.39;70.72
70968;BME280;58629;48.808;8.820;2024-03-23T12:51:30;96661.41;;;9.67;70.44
70968;BME280;58629;48.808;8.820;2024-03-23T12:53:55;96659.09;;;9.69;71.67
70968;BME280;58629;48.808;8.820;2024-03-23T12:56:21;96669.41;;;10.15;70.22
70968;BME280;58629;48.808;8.820;2024-03-23T12:58:46;96663.09;;;10.09;64.55
70968;BME280;58629;48.808;8.820;2024-03-23T13:01:16;96648.72;;;9.94;68.30
70968;BME280;58629;48.808;8.820;2024-03-23T13:03:41;96660.50;;;10.25;64.42
70968;BME280;58629;48.808;8.820;2024-03-23T13:06:07;96655.19;;;10.41;64.17
70968;BME280;58629;48.808;8.820;2024-03-23T13:08:33;96650.91;;;10.15;61.46
70968;BME280;58629;48.808;8.820;2024-03-23T13:10:59;96650.19;;;10.59;62.01
70968;BME280;58629;48.808;8.820;2024-03-23T13:13:24;96647.38;;;10.50;61.57
70968;BME280;58629;48.808;8.820;2024-03-23T13:15:50;96631.91;;;10.93;61.39
70968;BME280;58629;48.808;8.820;2024-03-23T13:18:16;96624.13;;;11.40;63.09
70968;BME280;58629;48.808;8.820;2024-03-23T13:20:41;96612.25;;;11.32;59.49
70968;BME280;58629;48.808;8.820;2024-03-23T13:23:06;96607.06;;;11.54;59.78
70968;BME280;58629;48.808;8.820;2024-03-23T13:25:31;96609.09;;;12.00;60.18
70968;BME280;58629;48.808;8.820;2024-03-23T13:27:58;96616.72;;;11.48;59.81
70968;BME280;58629;48.808;8.820;2024-03-23T13:30:23;96623.09;;;10.68;60.06
70968;BME280;58629;48.808;8.820;2024-03-23T13:32:49;96628.47;;;9.87;62.21
70968;BME280;58629;48.808;8.820;2024-03-23T13:35:14;96622.91;;;9.66;63.38
70968;BME280;58629;48.808;8.820;2024-03-23T13:37:39;96634.47;;;9.00;66.73
70968;BME280;58629;48.808;8.820;2024-03-23T13:40:06;96648.38;;;8.85;68.50
70968;BME280;58629;48.808;8.820;2024-03-23T13:42:31;96664.38;;;8.31;73.57
70968;BME280;58629;48.808;8.820;2024-03-23T13:44:57;96670.13;;;7.46;77.77
70968;BME280;58629;48.808;8.820;2024-03-23T13:47:22;96680.59;;;6.49;86.00
70968;BME280;58629;48.808;8.820;2024-03-23T13:49:47;96696.69;;;5.38;96.63
70968;BME280;58629;48.808;8.820;2024-03-23T13:52:14;96703.28;;;4.73;100.00
70968;BME280;58629;48.808;8.820;2024-03-23T13:54:39;96732.09;;;4.87;100.00
70968;BME280;58629;48.808;8.820;2024-03-23T13:57:10;96742.59;;;4.80;100.00
70968;BME280;58629;48.808;8.820;2024-03-23T13:59:36;96744.13;;;4.25;100.00
70968;BME280;58629;48.808;8.820;2024-03-23T14:02:01;96739.19;;;3.78;100.00